sensor_id;sensor_type;location;lat;lon;timestamp;temperature;humidity
13344;DHT22;6741;48.964;9.406;2022-09-29T00:01:08;6.20;99.90
13344;DHT22;6741;48.964;9.406;2022-09-29T00:03:36;6.20;99.90
13344;DHT22;6741;48.964;9.406;2022-09-29T00:06:08;6.20;99.90
13344;DHT22;6741;48.964;9.406;2022-09-29T00:08:36;6.30;99.90
13344;DHT22;6741;48.964;9.406;2022-09-29T00:11:06;6.30;99.90
13344;DHT22;6741;48.964;9.406;2022-09-29T00:13:33;6.30;99.90
13344;DHT22;6741;48.964;9.406;2022-09-29T00:16:01;6.30;99.90
13344;DHT22;6741;48.964;9.406;2022-09-29T00:18:31;6.30;99.90
13344;DHT22;6741;48.964;9.406;2022-09-29T00:20:59;6.40;99.90
13344;DHT22;6741;48.964;9.406;2022-09-29T00:23:27;6.40;99.90
13344;DHT22;6741;48.964;9.406;2022-09-29T00:26:00;6.40;99.90
13344;DHT22;6741;48.964;9.406;2022-09-29T00:28:27;6.40;99.90
13344;DHT22;6741;48.964;9.406;2022-09-29T00:30:54;6.50;99.90
13344;DHT22;6741;48.964;9.406;2022-09-29T00:33:23;6.50;99.90
13344;DHT22;6741;48.964;9.406;2022-09-29T00:35:58;6.50;99.90
13344;DHT22;6741;48.964;9.406;2022-09-29T00:38:26;6.50;99.90
13344;DHT22;6741;48.964;9.406;2022-09-29T00:40:53;6.50;99.90
13344;DHT22;6741;48.964;9.406;2022-09-29T00:43:22;6.40;99.90
13344;DHT22;6741;48.964;9.406;2022-09-29T00:45:52;6.40;99.90
13344;DHT22;6741;48.964;9.406;2022-09-29T00:48:26;6.40;99.90
13344;DHT22;6741;48.964;9.406;2022-09-29T00:50:58;6.40;99.90
13344;DHT22;6741;48.964;9.406;2022-09-29T00:53:26;6.40;99.90
13344;DHT22;6741;48.964;9.406;2022-09-29T00:55:57;6.40;99.90
13344;DHT22;6741;48.964;9.406;2022-09-29T00:58:29;6.50;99.90
13344;DHT22;6741;48.964;9.406;2022-09-29T01:00:58;6.50;99.90
13344;DHT22;6741;48.964;9.406;2022-09-29T01:03:29;6.60;99.90
13344;DHT22;6741;48.964;9.406;2022-09-29T01:06:02;6.50;99.90
13344;DHT22;6741;48.964;9.406;2022-09-29T01:08:38;6.60;99.90
13344;DHT22;6741;48.964;9.406;2022-09-29T01:11:05;6.60;99.90
13344;DHT22;6741;48.964;9.406;2022-09-29T01:13:33;6.70;99.90
13344;DHT22;6741;48.964;9.406;2022-09-29T01:16:00;6.60;99.90
13344;DHT22;6741;48.964;9.406;2022-09-29T01:18:27;6.60;99.90
13344;DHT22;6741;48.964;9.406;2022-09-29T01:21:01;6.60;99.90
13344;DHT22;6741;48.964;9.406;2022-09-29T01:23:58;6.60;99.90
13344;DHT22;6741;48.964;9.406;2022-09-29T01:27:02;6.60;99.90
13344;DHT22;6741;48.964;9.406;2022-09-29T01:29:45;6.60;99.90
13344;DHT22;6741;48.964;9.406;2022-09-29T01:32:24;6.60;99.90
13344;DHT22;6741;48.964;9.406;2022-09-29T01:35:00;6.60;99.90
13344;DHT22;6741;48.964;9.406;2022-09-29T01:37:37;6.70;99.90
13344;DHT22;6741;48.964;9.406;2022-09-29T01:40:09;6.70;99.90
13344;DHT22;6741;48.964;9.406;2022-09-29T01:42:45;6.60;99.90
13344;DHT22;6741;48.964;9.406;2022-09-29T01:45:19;6.60;99.90
13344;DHT22;6741;48.964;9.406;2022-09-29T01:47:52;6.60;99.90
13344;DHT22;6741;48.964;9.406;2022-09-29T01:50:22;6.50;99.90
13344;DHT22;6741;48.964;9.406;2022-09-29T01:52:55;6.50;99.90
13344;DHT22;6741;48.964;9.406;2022-09-29T01:55:29;6.50;99.90
13344;DHT22;6741;48.964;9.406;2022-09-29T01:57:59;6.50;99.90
13344;DHT22;6741;48.964;9.406;2022-09-29T02:00:29;6.50;99.90
13344;DHT22;6741;48.964;9.406;2022-09-29T02:03:04;6.50;99.90
13344;DHT22;6741;48.964;9.406;2022-09-29T02:05:37;6.50;99.90
13344;DHT22;6741;48.964;9.406;2022-09-29T02:08:09;6.40;99.90
13344;DHT22;6741;48.964;9.406;2022-09-29T02:10:40;6.30;99.90
13344;DHT22;6741;48.964;9.406;2022-09-29T02:13:09;6.40;99.90
13344;DHT22;6741;48.964;9.406;2022-09-29T02:15:38;6.40;99.90
13344;DHT22;6741;48.964;9.406;2022-09-29T02:18:13;6.40;99.90
13344;DHT22;6741;48.964;9.406;2022-09-29T02:20:42;6.40;99.90
13344;DHT22;6741;48.964;9.406;2022-09-29T02:23:09;6.40;99.90
13344;DHT22;6741;48.964;9.406;2022-09-29T02:25:38;6.50;99.90
13344;DHT22;6741;48.964;9.406;2022-09-29T02:28:06;6.50;99.90
13344;DHT22;6741;48.964;9.406;2022-09-29T02:30:34;6.40;99.90
13344;DHT22;6741;48.964;9.406;2022-09-29T02:33:01;6.40;99.90
13344;DHT22;6741;48.964;9.406;2022-09-29T02:35:39;6.50;99.90
13344;DHT22;6741;48.964;9.406;2022-09-29T02:38:14;6.50;99.90
13344;DHT22;6741;48.964;9.406;2022-09-29T02:40:50;6.40;99.90
13344;DHT22;6741;48.964;9.406;2022-09-29T02:43:51;6.40;99.90
13344;DHT22;6741;48.964;9.406;2022-09-29T02:46:37;6.40;99.90
13344;DHT22;6741;48.964;9.406;2022-09-29T02:49:24;6.40;99.90
13344;DHT22;6741;48.964;9.406;2022-09-29T02:51:58;6.40;99.90
13344;DHT22;6741;48.964;9.406;2022-09-29T02:54:45;6.40;99.90
13344;DHT22;6741;48.964;9.406;2022-09-29T02:57:18;6.50;99.90
13344;DHT22;6741;48.964;9.406;2022-09-29T02:59:53;6.50;99.90
13344;DHT22;6741;48.964;9.406;2022-09-29T03:02:23;6.50;99.90
13344;DHT22;6741;48.964;9.406;2022-09-29T03:04:50;6.60;99.90
13344;DHT22;6741;48.964;9.406;2022-09-29T03:07:19;6.60;99.90
13344;DHT22;6741;48.964;9.406;2022-09-29T03:09:47;6.60;99.90
13344;DHT22;6741;48.964;9.406;2022-09-29T03:12:14;6.60;99.90
13344;DHT22;6741;48.964;9.406;2022-09-29T03:14:42;6.60;99.90
13344;DHT22;6741;48.964;9.406;2022-09-29T03:17:09;6.60;99.90
13344;DHT22;6741;48.964;9.406;2022-09-29T03:19:37;6.50;99.90
13344;DHT22;6741;48.964;9.406;2022-09-29T03:22:04;6.60;99.90
13344;DHT22;6741;48.964;9.406;2022-09-29T03:24:32;6.60;99.90
13344;DHT22;6741;48.964;9.406;2022-09-29T03:26:59;6.60;99.90
13344;DHT22;6741;48.964;9.406;2022-09-29T03:29:27;6.60;99.90
13344;DHT22;6741;48.964;9.406;2022-09-29T03:31:54;6.60;99.90
13344;DHT22;6741;48.964;9.406;2022-09-29T03:34:20;6.60;99.90
13344;DHT22;6741;48.964;9.406;2022-09-29T03:36:47;6.70;99.90
13344;DHT22;6741;48.964;9.406;2022-09-29T03:39:14;6.60;99.90
13344;DHT22;6741;48.964;9.406;2022-09-29T03:41:43;6.60;99.90
13344;DHT22;6741;48.964;9.406;2022-09-29T03:44:09;6.60;99.90
13344;DHT22;6741;48.964;9.406;2022-09-29T03:46:36;6.60;99.90
13344;DHT22;6741;48.964;9.406;2022-09-29T03:49:03;6.70;99.90
13344;DHT22;6741;48.964;9.406;2022-09-29T03:51:31;6.70;99.90
13344;DHT22;6741;48.964;9.406;2022-09-29T03:53:58;6.70;99.90
13344;DHT22;6741;48.964;9.406;2022-09-29T03:56:24;6.70;99.90
13344;DHT22;6741;48.964;9.406;2022-09-29T03:58:53;6.70;99.90
13344;DHT22;6741;48.964;9.406;2022-09-29T04:01:20;6.70;99.90
13344;DHT22;6741;48.964;9.406;2022-09-29T04:03:47;6.70;99.90
13344;DHT22;6741;48.964;9.406;2022-09-29T04:06:14;6.70;99.90
13344;DHT22;6741;48.964;9.406;2022-09-29T04:08:41;6.70;99.90
13344;DHT22;6741;48.964;9.406;2022-09-29T04:11:08;6.70;99.90
13344;DHT22;6741;48.964;9.406;2022-09-29T04:13:35;6.70;99.90
13344;DHT22;6741;48.964;9.406;2022-09-29T04:16:04;6.60;99.90
13344;DHT22;6741;48.964;9.406;2022-09-29T04:18:31;6.60;99.90
13344;DHT22;6741;48.964;9.406;2022-09-29T04:20:59;6.60;99.90
13344;DHT22;6741;48.964;9.406;2022-09-29T04:23:26;6.50;99.90
13344;DHT22;6741;48.964;9.406;2022-09-29T04:25:54;6.40;99.90
13344;DHT22;6741;48.964;9.406;2022-09-29T04:28:21;6.40;99.90
13344;DHT22;6741;48.964;9.406;2022-09-29T04:30:48;6.30;99.90
13344;DHT22;6741;48.964;9.406;2022-09-29T04:33:17;6.30;99.90
13344;DHT22;6741;48.964;9.406;2022-09-29T04:35:44;6.20;99.90
13344;DHT22;6741;48.964;9.406;2022-09-29T04:38:11;6.20;99.90
13344;DHT22;6741;48.964;9.406;2022-09-29T04:40:38;6.20;99.90
13344;DHT22;6741;48.964;9.406;2022-09-29T04:43:05;6.10;99.90
13344;DHT22;6741;48.964;9.406;2022-09-29T04:45:32;6.10;99.90
13344;DHT22;6741;48.964;9.406;2022-09-29T04:48:00;6.10;99.90
13344;DHT22;6741;48.964;9.406;2022-09-29T04:50:28;6.10;99.90
13344;DHT22;6741;48.964;9.406;2022-09-29T04:52:55;6.00;99.90
13344;DHT22;6741;48.964;9.406;2022-09-29T04:55:22;6.00;99.90
13344;DHT22;6741;48.964;9.406;2022-09-29T04:57:49;6.00;99.90
13344;DHT22;6741;48.964;9.406;2022-09-29T05:00:16;6.00;99.90
13344;DHT22;6741;48.964;9.406;2022-09-29T05:02:44;5.90;99.90
13344;DHT22;6741;48.964;9.406;2022-09-29T05:05:11;5.90;99.90
13344;DHT22;6741;48.964;9.406;2022-09-29T05:07:39;5.90;99.90
13344;DHT22;6741;48.964;9.406;2022-09-29T05:10:07;5.90;99.90
13344;DHT22;6741;48.964;9.406;2022-09-29T05:12:35;5.90;99.90
13344;DHT22;6741;48.964;9.406;2022-09-29T05:15:03;5.90;99.90
13344;DHT22;6741;48.964;9.406;2022-09-29T05:17:30;5.90;99.90
13344;DHT22;6741;48.964;9.406;2022-09-29T05:19:57;5.90;99.90
13344;DHT22;6741;48.964;9.406;2022-09-29T05:22:24;5.80;99.90
13344;DHT22;6741;48.964;9.406;2022-09-29T05:24:53;5.80;99.90
13344;DHT22;6741;48.964;9.406;2022-09-29T05:27:23;5.80;99.90
13344;DHT22;6741;48.964;9.406;2022-09-29T05:29:49;5.80;99.90
13344;DHT22;6741;48.964;9.406;2022-09-29T05:32:16;5.80;99.90
13344;DHT22;6741;48.964;9.406;2022-09-29T05:34:43;5.80;99.90
13344;DHT22;6741;48.964;9.406;2022-09-29T05:37:10;5.80;99.90
13344;DHT22;6741;48.964;9.406;2022-09-29T05:39:38;5.80;99.90
13344;DHT22;6741;48.964;9.406;2022-09-29T05:42:10;5.80;99.90
13344;DHT22;6741;48.964;9.406;2022-09-29T05:44:37;5.80;99.90
13344;DHT22;6741;48.964;9.406;2022-09-29T05:47:04;5.90;99.90
13344;DHT22;6741;48.964;9.406;2022-09-29T05:49:31;5.90;99.90
13344;DHT22;6741;48.964;9.406;2022-09-29T05:51:58;6.00;99.90
13344;DHT22;6741;48.964;9.406;2022-09-29T05:54:25;6.00;99.90
13344;DHT22;6741;48.964;9.406;2022-09-29T05:56:53;6.10;99.90
13344;DHT22;6741;48.964;9.406;2022-09-29T05:59:22;6.10;99.90
13344;DHT22;6741;48.964;9.406;2022-09-29T06:01:49;6.10;99.90
13344;DHT22;6741;48.964;9.406;2022-09-29T06:04:16;6.10;99.90
13344;DHT22;6741;48.964;9.406;2022-09-29T06:06:43;6.10;99.90
13344;DHT22;6741;48.964;9.406;2022-09-29T06:09:09;6.10;99.90
13344;DHT22;6741;48.964;9.406;2022-09-29T06:11:36;6.20;99.90
13344;DHT22;6741;48.964;9.406;2022-09-29T06:14:03;6.30;99.90
13344;DHT22;6741;48.964;9.406;2022-09-29T06:16:32;6.30;99.90
13344;DHT22;6741;48.964;9.406;2022-09-29T06:19:00;6.40;99.90
13344;DHT22;6741;48.964;9.406;2022-09-29T06:21:28;6.40;99.90
13344;DHT22;6741;48.964;9.406;2022-09-29T06:23:56;6.40;99.90
13344;DHT22;6741;48.964;9.406;2022-09-29T06:26:24;6.40;99.90
13344;DHT22;6741;48.964;9.406;2022-09-29T06:28:52;6.40;99.90
13344;DHT22;6741;48.964;9.406;2022-09-29T06:31:20;6.60;99.90
13344;DHT22;6741;48.964;9.406;2022-09-29T06:33:49;6.60;99.90
13344;DHT22;6741;48.964;9.406;2022-09-29T06:36:19;6.80;99.90
13344;DHT22;6741;48.964;9.406;2022-09-29T06:39:04;6.80;99.90
13344;DHT22;6741;48.964;9.406;2022-09-29T06:41:31;6.80;99.90
13344;DHT22;6741;48.964;9.406;2022-09-29T06:44:00;7.00;99.90
13344;DHT22;6741;48.964;9.406;2022-09-29T06:46:27;7.10;99.90
13344;DHT22;6741;48.964;9.406;2022-09-29T06:48:55;7.20;99.90
13344;DHT22;6741;48.964;9.406;2022-09-29T06:51:24;7.40;99.90
13344;DHT22;6741;48.964;9.406;2022-09-29T06:53:51;7.40;99.90
13344;DHT22;6741;48.964;9.406;2022-09-29T06:56:18;7.40;99.90
13344;DHT22;6741;48.964;9.406;2022-09-29T06:58:45;7.40;99.90
13344;DHT22;6741;48.964;9.406;2022-09-29T07:01:13;7.50;99.90
13344;DHT22;6741;48.964;9.406;2022-09-29T07:03:40;7.50;99.90
13344;DHT22;6741;48.964;9.406;2022-09-29T07:06:09;7.60;99.90
13344;DHT22;6741;48.964;9.406;2022-09-29T07:08:36;7.80;99.90
13344;DHT22;6741;48.964;9.406;2022-09-29T07:11:05;7.90;99.90
13344;DHT22;6741;48.964;9.406;2022-09-29T07:13:32;8.10;99.90
13344;DHT22;6741;48.964;9.406;2022-09-29T07:16:03;8.20;99.90
13344;DHT22;6741;48.964;9.406;2022-09-29T07:18:32;8.30;99.90
13344;DHT22;6741;48.964;9.406;2022-09-29T07:21:02;8.30;99.90
13344;DHT22;6741;48.964;9.406;2022-09-29T07:23:31;8.40;99.90
13344;DHT22;6741;48.964;9.406;2022-09-29T07:25:58;8.50;99.90
13344;DHT22;6741;48.964;9.406;2022-09-29T07:28:25;8.50;99.90
13344;DHT22;6741;48.964;9.406;2022-09-29T07:30:58;8.50;99.90
13344;DHT22;6741;48.964;9.406;2022-09-29T07:33:26;8.70;99.90
13344;DHT22;6741;48.964;9.406;2022-09-29T07:35:53;8.80;99.90
13344;DHT22;6741;48.964;9.406;2022-09-29T07:38:20;8.90;99.90
13344;DHT22;6741;48.964;9.406;2022-09-29T07:40:48;9.00;99.90
13344;DHT22;6741;48.964;9.406;2022-09-29T07:43:15;9.00;99.90
13344;DHT22;6741;48.964;9.406;2022-09-29T07:45:46;9.00;99.90
13344;DHT22;6741;48.964;9.406;2022-09-29T07:48:13;9.10;99.90
13344;DHT22;6741;48.964;9.406;2022-09-29T07:50:41;9.10;99.90
13344;DHT22;6741;48.964;9.406;2022-09-29T07:53:08;9.20;99.90
13344;DHT22;6741;48.964;9.406;2022-09-29T07:55:35;9.20;99.90
13344;DHT22;6741;48.964;9.406;2022-09-29T07:58:04;9.20;99.90
13344;DHT22;6741;48.964;9.406;2022-09-29T08:00:31;9.30;99.90
13344;DHT22;6741;48.964;9.406;2022-09-29T08:02:59;9.40;99.90
13344;DHT22;6741;48.964;9.406;2022-09-29T08:05:28;9.30;99.90
13344;DHT22;6741;48.964;9.406;2022-09-29T08:07:58;9.30;99.90
13344;DHT22;6741;48.964;9.406;2022-09-29T08:10:26;9.40;99.90
13344;DHT22;6741;48.964;9.406;2022-09-29T08:12:53;9.60;99.90
13344;DHT22;6741;48.964;9.406;2022-09-29T08:15:22;9.80;99.90
13344;DHT22;6741;48.964;9.406;2022-09-29T08:17:51;10.00;99.90
13344;DHT22;6741;48.964;9.406;2022-09-29T08:20:19;10.20;99.90
13344;DHT22;6741;48.964;9.406;2022-09-29T08:22:46;10.10;99.90
13344;DHT22;6741;48.964;9.406;2022-09-29T08:25:13;10.20;99.90
13344;DHT22;6741;48.964;9.406;2022-09-29T08:27:41;10.30;99.90
13344;DHT22;6741;48.964;9.406;2022-09-29T08:30:09;10.40;99.90
13344;DHT22;6741;48.964;9.406;2022-09-29T08:32:37;10.40;99.90
13344;DHT22;6741;48.964;9.406;2022-09-29T08:35:05;10.20;99.90
13344;DHT22;6741;48.964;9.406;2022-09-29T08:37:32;10.30;99.90
13344;DHT22;6741;48.964;9.406;2022-09-29T08:39:59;10.40;99.90
13344;DHT22;6741;48.964;9.406;2022-09-29T08:42:32;10.50;99.90
13344;DHT22;6741;48.964;9.406;2022-09-29T08:45:10;10.70;99.90
13344;DHT22;6741;48.964;9.406;2022-09-29T08:47:43;10.80;99.90
13344;DHT22;6741;48.964;9.406;2022-09-29T08:50:13;11.00;99.90
13344;DHT22;6741;48.964;9.406;2022-09-29T08:52:45;11.00;99.90
13344;DHT22;6741;48.964;9.406;2022-09-29T08:55:22;11.00;99.90
13344;DHT22;6741;48.964;9.406;2022-09-29T08:57:56;11.10;99.90
13344;DHT22;6741;48.964;9.406;2022-09-29T09:00:32;11.30;99.90
13344;DHT22;6741;48.964;9.406;2022-09-29T09:03:13;11.40;99.90
13344;DHT22;6741;48.964;9.406;2022-09-29T09:06:03;11.70;99.90
13344;DHT22;6741;48.964;9.406;2022-09-29T09:08:53;11.80;99.90
13344;DHT22;6741;48.964;9.406;2022-09-29T09:11:36;11.90;99.90
13344;DHT22;6741;48.964;9.406;2022-09-29T09:14:16;12.00;99.90
13344;DHT22;6741;48.964;9.406;2022-09-29T09:16:53;12.20;99.90
13344;DHT22;6741;48.964;9.406;2022-09-29T09:19:47;12.40;99.90
13344;DHT22;6741;48.964;9.406;2022-09-29T09:22:21;12.50;99.90
13344;DHT22;6741;48.964;9.406;2022-09-29T09:24:55;12.50;99.90
13344;DHT22;6741;48.964;9.406;2022-09-29T09:27:25;12.40;99.90
13344;DHT22;6741;48.964;9.406;2022-09-29T09:30:01;12.60;99.90
13344;DHT22;6741;48.964;9.406;2022-09-29T09:32:32;13.00;99.90
13344;DHT22;6741;48.964;9.406;2022-09-29T09:35:15;13.10;99.90
13344;DHT22;6741;48.964;9.406;2022-09-29T09:37:47;13.40;99.90
13344;DHT22;6741;48.964;9.406;2022-09-29T09:40:18;13.70;99.90
13344;DHT22;6741;48.964;9.406;2022-09-29T09:42:51;13.80;99.90
13344;DHT22;6741;48.964;9.406;2022-09-29T09:45:26;14.00;99.90
13344;DHT22;6741;48.964;9.406;2022-09-29T09:47:58;14.00;99.90
13344;DHT22;6741;48.964;9.406;2022-09-29T09:50:29;14.00;99.90
13344;DHT22;6741;48.964;9.406;2022-09-29T09:52:58;13.90;99.90
13344;DHT22;6741;48.964;9.406;2022-09-29T09:55:27;14.00;99.90
13344;DHT22;6741;48.964;9.406;2022-09-29T09:58:32;13.90;99.90
13344;DHT22;6741;48.964;9.406;2022-09-29T10:01:04;14.10;99.90
13344;DHT22;6741;48.964;9.406;2022-09-29T10:03:32;13.90;99.90
13344;DHT22;6741;48.964;9.406;2022-09-29T10:06:01;13.40;99.90
13344;DHT22;6741;48.964;9.406;2022-09-29T10:08:30;13.30;99.90
13344;DHT22;6741;48.964;9.406;2022-09-29T10:11:04;13.20;99.90
13344;DHT22;6741;48.964;9.406;2022-09-29T10:13:37;13.00;99.90
13344;DHT22;6741;48.964;9.406;2022-09-29T10:16:10;12.90;99.90
13344;DHT22;6741;48.964;9.406;2022-09-29T10:18:40;13.00;99.90
13344;DHT22;6741;48.964;9.406;2022-09-29T10:21:20;13.00;99.90
13344;DHT22;6741;48.964;9.406;2022-09-29T10:23:50;13.00;99.90
13344;DHT22;6741;48.964;9.406;2022-09-29T10:26:19;13.20;99.90
13344;DHT22;6741;48.964;9.406;2022-09-29T10:28:54;13.50;99.90
13344;DHT22;6741;48.964;9.406;2022-09-29T10:31:26;13.30;99.90
13344;DHT22;6741;48.964;9.406;2022-09-29T10:33:56;13.70;99.90
13344;DHT22;6741;48.964;9.406;2022-09-29T10:36:29;14.00;99.90
13344;DHT22;6741;48.964;9.406;2022-09-29T10:38:56;13.90;99.90
13344;DHT22;6741;48.964;9.406;2022-09-29T10:41:24;13.90;99.90
13344;DHT22;6741;48.964;9.406;2022-09-29T10:43:51;14.10;99.90
13344;DHT22;6741;48.964;9.406;2022-09-29T10:46:37;14.10;99.90
13344;DHT22;6741;48.964;9.406;2022-09-29T10:49:08;14.40;99.90
13344;DHT22;6741;48.964;9.406;2022-09-29T10:51:38;14.80;99.90
13344;DHT22;6741;48.964;9.406;2022-09-29T10:54:07;15.50;99.90
13344;DHT22;6741;48.964;9.406;2022-09-29T10:56:35;15.60;99.90
13344;DHT22;6741;48.964;9.406;2022-09-29T10:59:03;15.50;99.90
13344;DHT22;6741;48.964;9.406;2022-09-29T11:01:32;15.30;99.90
13344;DHT22;6741;48.964;9.406;2022-09-29T11:04:06;16.00;99.90
13344;DHT22;6741;48.964;9.406;2022-09-29T11:06:42;15.90;99.90
13344;DHT22;6741;48.964;9.406;2022-09-29T11:09:26;15.70;99.90
13344;DHT22;6741;48.964;9.406;2022-09-29T11:11:55;15.90;99.90
13344;DHT22;6741;48.964;9.406;2022-09-29T11:14:26;16.20;99.90
13344;DHT22;6741;48.964;9.406;2022-09-29T11:16:56;16.40;99.90
13344;DHT22;6741;48.964;9.406;2022-09-29T11:19:24;15.80;99.90
13344;DHT22;6741;48.964;9.406;2022-09-29T11:22:07;15.90;99.90
13344;DHT22;6741;48.964;9.406;2022-09-29T11:25:02;16.90;99.90
13344;DHT22;6741;48.964;9.406;2022-09-29T11:27:43;17.80;99.90
13344;DHT22;6741;48.964;9.406;2022-09-29T11:30:14;18.80;99.90
13344;DHT22;6741;48.964;9.406;2022-09-29T11:33:06;19.60;99.90
13344;DHT22;6741;48.964;9.406;2022-09-29T11:35:51;20.10;99.90
13344;DHT22;6741;48.964;9.406;2022-09-29T11:38:41;19.90;99.90
13344;DHT22;6741;48.964;9.406;2022-09-29T11:41:30;20.10;99.90
13344;DHT22;6741;48.964;9.406;2022-09-29T11:44:08;19.00;99.90
13344;DHT22;6741;48.964;9.406;2022-09-29T11:46:51;18.20;99.90
13344;DHT22;6741;48.964;9.406;2022-09-29T11:49:43;18.10;99.90
13344;DHT22;6741;48.964;9.406;2022-09-29T11:52:37;18.60;99.90
13344;DHT22;6741;48.964;9.406;2022-09-29T11:55:24;19.00;99.90
13344;DHT22;6741;48.964;9.406;2022-09-29T11:58:08;19.20;99.90
13344;DHT22;6741;48.964;9.406;2022-09-29T12:03:38;19.10;99.90
13344;DHT22;6741;48.964;9.406;2022-09-29T12:06:34;19.60;99.90
13344;DHT22;6741;48.964;9.406;2022-09-29T12:09:20;19.50;99.90
13344;DHT22;6741;48.964;9.406;2022-09-29T12:11:58;19.50;99.90
13344;DHT22;6741;48.964;9.406;2022-09-29T12:14:35;18.80;99.90
13344;DHT22;6741;48.964;9.406;2022-09-29T12:17:09;18.80;99.90
13344;DHT22;6741;48.964;9.406;2022-09-29T12:19:40;19.20;99.90
13344;DHT22;6741;48.964;9.406;2022-09-29T12:22:14;19.60;99.90
13344;DHT22;6741;48.964;9.406;2022-09-29T12:24:46;18.70;99.90
13344;DHT22;6741;48.964;9.406;2022-09-29T12:27:23;18.60;99.90
13344;DHT22;6741;48.964;9.406;2022-09-29T12:29:55;18.50;99.90
13344;DHT22;6741;48.964;9.406;2022-09-29T12:32:27;18.60;99.90
13344;DHT22;6741;48.964;9.406;2022-09-29T12:34:58;18.80;99.90
13344;DHT22;6741;48.964;9.406;2022-09-29T12:37:31;19.50;99.90
13344;DHT22;6741;48.964;9.406;2022-09-29T12:40:03;20.60;99.90
13344;DHT22;6741;48.964;9.406;2022-09-29T12:42:40;22.30;99.90
13344;DHT22;6741;48.964;9.406;2022-09-29T12:45:14;22.80;99.90
13344;DHT22;6741;48.964;9.406;2022-09-29T12:47:53;22.80;99.90
13344;DHT22;6741;48.964;9.406;2022-09-29T12:50:27;22.30;99.90
13344;DHT22;6741;48.964;9.406;2022-09-29T12:52:59;21.40;99.90
13344;DHT22;6741;48.964;9.406;2022-09-29T12:55:40;20.20;99.90
13344;DHT22;6741;48.964;9.406;2022-09-29T12:58:18;20.10;99.90
13344;DHT22;6741;48.964;9.406;2022-09-29T13:00:50;19.90;99.90
13344;DHT22;6741;48.964;9.406;2022-09-29T13:06:39;20.10;99.90
13344;DHT22;6741;48.964;9.406;2022-09-29T13:09:31;20.60;99.90
13344;DHT22;6741;48.964;9.406;2022-09-29T13:12:18;20.40;99.90
13344;DHT22;6741;48.964;9.406;2022-09-29T13:14:59;20.60;99.90
13344;DHT22;6741;48.964;9.406;2022-09-29T13:17:40;21.20;99.90
13344;DHT22;6741;48.964;9.406;2022-09-29T13:20:36;20.60;99.90
13344;DHT22;6741;48.964;9.406;2022-09-29T13:23:24;20.70;99.90
13344;DHT22;6741;48.964;9.406;2022-09-29T13:26:07;21.30;99.90
13344;DHT22;6741;48.964;9.406;2022-09-29T13:28:41;22.00;99.90
13344;DHT22;6741;48.964;9.406;2022-09-29T13:31:13;22.20;99.90
13344;DHT22;6741;48.964;9.406;2022-09-29T13:33:46;22.70;99.90
13344;DHT22;6741;48.964;9.406;2022-09-29T13:36:21;21.80;99.90
13344;DHT22;6741;48.964;9.406;2022-09-29T13:38:53;20.40;99.90
13344;DHT22;6741;48.964;9.406;2022-09-29T13:41:33;19.40;99.90
13344;DHT22;6741;48.964;9.406;2022-09-29T13:44:23;19.60;99.90
13344;DHT22;6741;48.964;9.406;2022-09-29T13:46:52;19.10;99.90
13344;DHT22;6741;48.964;9.406;2022-09-29T13:49:27;19.00;99.90
13344;DHT22;6741;48.964;9.406;2022-09-29T13:51:56;18.60;99.90
13344;DHT22;6741;48.964;9.406;2022-09-29T13:54:36;18.80;99.90
13344;DHT22;6741;48.964;9.406;2022-09-29T13:57:21;18.40;99.90
13344;DHT22;6741;48.964;9.406;2022-09-29T14:00:18;18.00;99.90
13344;DHT22;6741;48.964;9.406;2022-09-29T14:02:59;17.60;99.90
13344;DHT22;6741;48.964;9.406;2022-09-29T14:08:26;17.60;99.90
13344;DHT22;6741;48.964;9.406;2022-09-29T14:11:13;18.10;99.90
13344;DHT22;6741;48.964;9.406;2022-09-29T14:13:45;18.90;99.90
13344;DHT22;6741;48.964;9.406;2022-09-29T14:16:29;19.20;99.90
13344;DHT22;6741;48.964;9.406;2022-09-29T14:19:03;19.00;99.90
13344;DHT22;6741;48.964;9.406;2022-09-29T14:22:01;18.80;99.90
13344;DHT22;6741;48.964;9.406;2022-09-29T14:27:38;17.60;99.90
13344;DHT22;6741;48.964;9.406;2022-09-29T14:30:17;17.00;99.90
13344;DHT22;6741;48.964;9.406;2022-09-29T14:32:53;16.10;99.90
13344;DHT22;6741;48.964;9.406;2022-09-29T14:35:28;15.40;99.90
13344;DHT22;6741;48.964;9.406;2022-09-29T14:38:02;15.50;99.90
13344;DHT22;6741;48.964;9.406;2022-09-29T14:40:34;15.70;99.90
13344;DHT22;6741;48.964;9.406;2022-09-29T14:43:14;15.70;99.90
13344;DHT22;6741;48.964;9.406;2022-09-29T14:46:00;15.30;99.90
13344;DHT22;6741;48.964;9.406;2022-09-29T14:49:11;14.90;99.90
13344;DHT22;6741;48.964;9.406;2022-09-29T14:52:05;14.60;99.90
13344;DHT22;6741;48.964;9.406;2022-09-29T14:54:50;14.60;99.90
13344;DHT22;6741;48.964;9.406;2022-09-29T14:57:53;14.60;99.90
13344;DHT22;6741;48.964;9.406;2022-09-29T15:00:30;14.70;99.90
13344;DHT22;6741;48.964;9.406;2022-09-29T15:03:00;14.70;99.90
13344;DHT22;6741;48.964;9.406;2022-09-29T15:05:29;14.70;99.90
13344;DHT22;6741;48.964;9.406;2022-09-29T15:07:59;14.60;99.90
13344;DHT22;6741;48.964;9.406;2022-09-29T15:10:28;14.60;99.90
13344;DHT22;6741;48.964;9.406;2022-09-29T15:13:14;14.60;99.90
13344;DHT22;6741;48.964;9.406;2022-09-29T15:15:47;14.50;99.90
13344;DHT22;6741;48.964;9.406;2022-09-29T15:18:34;14.50;99.90
13344;DHT22;6741;48.964;9.406;2022-09-29T15:21:14;14.50;99.90
13344;DHT22;6741;48.964;9.406;2022-09-29T15:24:01;14.50;99.90
13344;DHT22;6741;48.964;9.406;2022-09-29T15:26:34;14.40;99.90
13344;DHT22;6741;48.964;9.406;2022-09-29T15:29:05;14.30;99.90
13344;DHT22;6741;48.964;9.406;2022-09-29T15:31:33;14.40;99.90
13344;DHT22;6741;48.964;9.406;2022-09-29T15:34:02;14.30;99.90
13344;DHT22;6741;48.964;9.406;2022-09-29T15:36:34;14.40;99.90
13344;DHT22;6741;48.964;9.406;2022-09-29T15:39:05;14.30;99.90
13344;DHT22;6741;48.964;9.406;2022-09-29T15:41:33;14.20;99.90
13344;DHT22;6741;48.964;9.406;2022-09-29T15:44:02;14.10;99.90
13344;DHT22;6741;48.964;9.406;2022-09-29T15:46:35;14.00;99.90
13344;DHT22;6741;48.964;9.406;2022-09-29T15:49:12;13.90;99.90
13344;DHT22;6741;48.964;9.406;2022-09-29T15:51:41;13.80;99.90
13344;DHT22;6741;48.964;9.406;2022-09-29T15:54:12;13.70;99.90
13344;DHT22;6741;48.964;9.406;2022-09-29T15:56:40;13.60;99.90
13344;DHT22;6741;48.964;9.406;2022-09-29T15:59:44;13.60;99.90
13344;DHT22;6741;48.964;9.406;2022-09-29T16:02:27;13.60;99.90
13344;DHT22;6741;48.964;9.406;2022-09-29T16:04:57;13.60;99.90
13344;DHT22;6741;48.964;9.406;2022-09-29T16:07:29;13.60;99.90
13344;DHT22;6741;48.964;9.406;2022-09-29T16:10:01;13.60;99.90
13344;DHT22;6741;48.964;9.406;2022-09-29T16:12:31;13.60;99.90
13344;DHT22;6741;48.964;9.406;2022-09-29T16:15:00;13.50;99.90
13344;DHT22;6741;48.964;9.406;2022-09-29T16:17:27;13.40;99.90
13344;DHT22;6741;48.964;9.406;2022-09-29T16:19:54;13.30;99.90
13344;DHT22;6741;48.964;9.406;2022-09-29T16:22:23;13.30;99.90
13344;DHT22;6741;48.964;9.406;2022-09-29T16:24:53;13.30;99.90
13344;DHT22;6741;48.964;9.406;2022-09-29T16:27:45;13.20;99.90
13344;DHT22;6741;48.964;9.406;2022-09-29T16:30:21;13.10;99.90
13344;DHT22;6741;48.964;9.406;2022-09-29T16:32:54;13.10;99.90
13344;DHT22;6741;48.964;9.406;2022-09-29T16:35:55;12.90;99.90
13344;DHT22;6741;48.964;9.406;2022-09-29T16:38:38;12.80;99.90
13344;DHT22;6741;48.964;9.406;2022-09-29T16:41:19;12.70;99.90
13344;DHT22;6741;48.964;9.406;2022-09-29T16:43:48;12.50;99.90